Time;durP1;ratioP1;P1;durP2;ratioP2;P2;SDS_P1;SDS_P2;PMS_P1;PMS_P2;Temp;Humidity;BMP_temperature;BMP_pressure;BME280_temperature;BME280_humidity;BME280_pressure;Samples;Min_cycle;Max_cycle;Signal;HPM_P1;HPM_P2
2021/11/12 05:13:27;;;;;;;154.77;43.97;;;3.00;99.90;;;;;;4986890;28;20514;-68
2021/11/12 05:43:52;;;;;;;257.33;45.57;;;2.90;99.90;;;;;;5092509;28;20406;-70
2021/11/12 05:46:37;;;;;;;200.20;45.57;;;2.90;99.90;;;;;;5091970;28;20521;-70
2021/11/12 05:52:13;;;;;;;540.47;49.70;;;3.00;99.90;;;;;;5057099;28;20523;-68
2021/11/12 05:57:26;;;;;;;186.10;42.17;;;2.90;99.90;;;;;;5092257;28;20468;-70
2021/11/12 05:59:54;;;;;;;161.63;39.80;;;3.00;99.90;;;;;;5092433;28;20458;-70
2021/11/12 06:02:21;;;;;;;360.00;46.50;;;3.10;99.90;;;;;;5092322;28;20556;-70
2021/11/12 06:04:48;;;;;;;544.73;51.83;;;3.40;99.90;;;;;;5092078;28;20454;-70
2021/11/12 06:07:15;;;;;;;176.97;38.43;;;3.90;99.90;;;;;;5092476;28;20453;-70
2021/11/12 06:09:43;;;;;;;374.37;45.57;;;4.20;99.90;;;;;;5092226;28;20955;-71
2021/11/12 06:12:11;;;;;;;196.87;36.33;;;4.40;99.90;;;;;;5092279;28;20497;-71
2021/11/12 06:14:39;;;;;;;288.40;35.50;;;4.40;99.90;;;;;;5092297;28;20545;-70
2021/11/12 06:17:06;;;;;;;168.00;32.40;;;4.40;99.90;;;;;;5091891;28;20470;-71
2021/11/12 06:19:33;;;;;;;163.83;29.17;;;4.70;99.90;;;;;;5091984;28;20524;-71
2021/11/12 06:21:59;;;;;;;58.87;28.83;;;4.70;99.90;;;;;;5095213;28;20481;-69
2021/11/12 06:24:27;;;;;;;68.77;26.87;;;4.60;99.90;;;;;;5094127;28;20450;-68
2021/11/12 06:26:56;;;;;;;188.57;27.93;;;4.60;99.90;;;;;;5092552;28;20446;-69
2021/11/12 06:29:23;;;;;;;149.40;30.70;;;4.50;99.90;;;;;;5091998;28;20492;-69
2021/11/12 06:31:50;;;;;;;83.27;27.70;;;4.40;99.90;;;;;;5092152;28;20469;-69
2021/11/12 06:34:16;;;;;;;69.30;29.23;;;4.20;99.90;;;;;;5092545;28;20454;-70
2021/11/12 06:36:43;;;;;;;62.63;29.17;;;4.10;99.90;;;;;;5092935;28;20496;-69
2021/11/12 06:39:10;;;;;;;97.00;30.57;;;4.00;99.90;;;;;;5102479;28;20457;-70
2021/11/12 06:41:52;;;;;;;159.40;32.30;;;3.90;99.90;;;;;;5098047;28;20482;-69
2021/11/12 06:44:38;;;;;;;121.57;31.13;;;3.80;99.90;;;;;;5092842;28;20439;-69
2021/11/12 06:49:53;;;;;;;71.03;31.07;;;3.60;99.90;;;;;;5100452;28;20430;-69
2021/11/12 06:52:21;;;;;;;277.30;36.73;;;3.60;99.90;;;;;;5099689;28;20477;-68
2021/11/12 06:54:48;;;;;;;89.67;30.97;;;3.50;99.90;;;;;;5100444;28;20442;-69
2021/11/12 06:57:17;;;;;;;162.53;32.87;;;3.40;99.90;;;;;;5099752;28;20470;-69
2021/11/12 06:59:46;;;;;;;174.97;34.93;;;3.40;99.90;;;;;;5081185;28;20482;-69
2021/11/12 07:02:14;;;;;;;278.50;36.90;;;3.30;99.90;;;;;;5077617;28;20474;-69
2021/11/12 07:04:41;;;;;;;260.43;38.83;;;3.20;99.90;;;;;;5077446;28;20455;-68
2021/11/12 07:07:09;;;;;;;99.53;32.20;;;3.00;99.90;;;;;;5079753;28;20450;-68
2021/11/12 07:09:37;;;;;;;102.43;32.77;;;3.00;99.90;;;;;;5079646;28;20546;-69
2021/11/12 07:12:05;;;;;;;214.67;35.30;;;3.00;99.90;;;;;;5077082;28;20478;-68
2021/11/12 07:14:31;;;;;;;142.13;34.57;;;3.00;99.90;;;;;;5091761;28;20450;-68
2021/11/12 07:16:59;;;;;;;180.73;34.07;;;3.00;99.90;;;;;;5099272;28;20477;-69
2021/11/12 07:19:26;;;;;;;247.73;40.17;;;3.00;99.90;;;;;;5095169;28;20834;-69
2021/11/12 07:21:56;;;;;;;174.43;37.90;;;2.80;99.90;;;;;;5086621;28;20470;-69
2021/11/12 07:24:23;;;;;;;357.30;40.07;;;2.80;99.90;;;;;;5076449;28;20478;-69
2021/11/12 07:26:49;;;;;;;232.87;38.70;;;2.80;99.90;;;;;;5076690;28;20454;-68
2021/11/12 07:29:18;;;;;;;230.27;39.70;;;2.80;99.90;;;;;;5078871;28;20446;-69
2021/11/12 07:31:45;;;;;;;316.73;42.20;;;2.70;99.90;;;;;;5076816;28;20475;-68
2021/11/12 07:34:13;;;;;;;341.97;43.83;;;2.80;99.90;;;;;;5079407;28;20455;-68
2021/11/12 07:36:44;;;;;;;175.13;36.50;;;2.80;99.90;;;;;;5076286;28;20818;-68
2021/11/12 07:39:15;;;;;;;186.53;37.07;;;2.90;99.90;;;;;;5079348;28;20435;-70
2021/11/12 07:42:07;;;;;;;417.80;43.90;;;2.90;99.90;;;;;;5082095;28;20649;-69
2021/11/12 07:44:38;;;;;;;318.37;41.77;;;3.00;99.90;;;;;;5088135;28;20462;-68
2021/11/12 07:47:12;;;;;;;112.87;38.50;;;3.00;99.90;;;;;;5080865;28;20899;-69
2021/11/12 07:49:41;;;;;;;194.40;41.53;;;3.00;99.90;;;;;;5076191;28;20434;-68
2021/11/12 07:52:08;;;;;;;384.33;44.40;;;3.00;99.90;;;;;;5080787;28;20485;-68
2021/11/12 07:54:35;;;;;;;229.77;40.60;;;3.10;99.90;;;;;;5078593;28;20453;-68
2021/11/12 07:57:02;;;;;;;236.50;41.47;;;3.10;99.90;;;;;;5076352;28;20478;-69
2021/11/12 07:59:29;;;;;;;220.47;39.20;;;3.10;99.90;;;;;;5083950;28;20450;-69
2021/11/12 08:01:56;;;;;;;277.33;39.87;;;3.20;99.90;;;;;;5091618;28;20485;-69
2021/11/12 08:04:23;;;;;;;244.57;41.70;;;3.20;99.90;;;;;;5076861;28;20463;-68
2021/11/12 08:06:54;;;;;;;150.50;37.47;;;3.20;99.90;;;;;;5076170;28;20508;-68
2021/11/12 08:09:22;;;;;;;335.00;40.97;;;3.20;99.90;;;;;;5075535;28;20438;-68
2021/11/12 08:11:52;;;;;;;240.30;40.20;;;3.20;99.90;;;;;;5076067;28;20482;-68
2021/11/12 08:14:23;;;;;;;266.63;43.53;;;3.20;99.90;;;;;;5076677;28;20450;-68
2021/11/12 08:16:59;;;;;;;453.90;45.63;;;3.20;99.90;;;;;;5076336;28;20956;-68
2021/11/12 08:19:28;;;;;;;169.07;38.90;;;3.20;99.90;;;;;;5075559;28;20873;-69
2021/11/12 08:22:02;;;;;;;340.50;43.33;;;3.20;99.90;;;;;;5075666;28;20970;-69
2021/11/12 08:24:44;;;;;;;273.63;43.40;;;3.20;99.90;;;;;;5075354;28;20538;-68
2021/11/12 08:27:30;;;;;;;394.33;46.37;;;3.20;99.90;;;;;;5076883;28;20434;-68
2021/11/12 08:30:07;;;;;;;182.07;42.67;;;3.10;99.90;;;;;;5075385;28;20464;-68
2021/11/12 08:32:50;;;;;;;226.97;43.07;;;3.10;99.90;;;;;;5076135;28;20474;-68
2021/11/12 08:35:29;;;;;;;405.67;45.87;;;3.30;99.90;;;;;;5075006;28;20934;-68
2021/11/12 08:38:06;;;;;;;217.97;41.60;;;3.40;99.90;;;;;;5075381;28;20573;-69
2021/11/12 08:43:23;;;;;;;408.87;43.50;;;3.50;99.90;;;;;;5069591;28;20766;-68
2021/11/12 08:46:02;;;;;;;136.23;38.07;;;3.50;99.90;;;;;;5075497;28;20456;-68
2021/11/12 08:48:38;;;;;;;94.07;36.80;;;3.50;99.90;;;;;;5074811;28;20427;-68
2021/11/12 08:51:09;;;;;;;200.87;38.20;;;3.60;99.90;;;;;;5074850;28;20470;-68
2021/11/12 08:53:38;;;;;;;69.53;35.73;;;3.60;99.90;;;;;;5075239;28;20431;-67
2021/11/12 08:56:12;;;;;;;99.97;36.87;;;3.70;99.90;;;;;;5075094;28;20455;-69
2021/11/12 08:58:38;;;;;;;72.60;34.53;;;3.80;99.90;;;;;;5074990;28;20470;-67
2021/11/12 09:01:05;;;;;;;109.70;36.40;;;3.90;99.90;;;;;;5075081;28;20497;-68
2021/11/12 09:03:32;;;;;;;94.00;33.07;;;4.00;99.90;;;;;;5074950;28;20450;-68
2021/11/12 09:05:58;;;;;;;95.40;33.53;;;4.10;99.90;;;;;;5074467;28;20459;-68
2021/11/12 09:08:26;;;;;;;49.60;29.67;;;4.10;99.90;;;;;;5074721;28;20453;-68
2021/11/12 09:10:54;;;;;;;77.73;29.93;;;4.20;99.90;;;;;;5074712;28;20478;-69
2021/11/12 09:13:23;;;;;;;54.63;31.10;;;4.20;99.90;;;;;;5074308;28;20450;-69
2021/11/12 09:15:52;;;;;;;47.53;31.03;;;4.20;99.90;;;;;;5075035;28;20443;-68
2021/11/12 09:18:22;;;;;;;58.27;30.27;;;4.00;99.90;;;;;;5074617;28;20551;-68
2021/11/12 09:20:50;;;;;;;128.63;35.80;;;4.10;99.90;;;;;;5078272;28;20501;-68
2021/11/12 09:23:16;;;;;;;80.30;30.57;;;4.20;99.90;;;;;;5084019;28;20549;-68
2021/11/12 09:25:43;;;;;;;102.60;32.50;;;4.20;99.90;;;;;;5080988;28;20456;-69
2021/11/12 09:28:12;;;;;;;145.23;32.47;;;4.20;99.90;;;;;;5078481;28;20450;-69
2021/11/12 09:30:40;;;;;;;89.43;35.93;;;4.20;99.90;;;;;;5075488;28;20479;-69
2021/11/12 09:33:08;;;;;;;79.57;29.33;;;4.30;99.90;;;;;;5074942;28;20454;-68
2021/11/12 09:35:36;;;;;;;242.37;33.03;;;4.40;99.90;;;;;;5074433;28;20860;-68
2021/11/12 09:38:02;;;;;;;190.00;38.93;;;4.30;99.90;;;;;;5073943;28;20484;-68
2021/11/12 09:40:29;;;;;;;58.83;31.43;;;4.10;99.90;;;;;;5074366;28;20478;-68
2021/11/12 09:42:56;;;;;;;74.63;33.33;;;4.30;99.90;;;;;;5074662;28;20454;-68
2021/11/12 09:45:25;;;;;;;118.13;34.40;;;4.40;99.90;;;;;;5075926;28;20463;-68
2021/11/12 09:47:52;;;;;;;44.43;32.33;;;4.50;99.90;;;;;;5076346;28;20476;-68
2021/11/12 09:50:22;;;;;;;88.77;33.10;;;4.40;99.90;;;;;;5075436;28;20454;-68
2021/11/12 09:52:49;;;;;;;66.63;33.17;;;4.40;99.90;;;;;;5074410;28;20878;-68
2021/11/12 09:55:17;;;;;;;47.70;30.97;;;4.50;99.90;;;;;;5074493;28;20866;-68
2021/11/12 09:57:44;;;;;;;56.63;31.90;;;4.60;99.90;;;;;;5074105;28;20470;-68
2021/11/12 10:00:13;;;;;;;67.90;31.30;;;4.70;99.90;;;;;;5074707;28;20487;-68
2021/11/12 10:02:44;;;;;;;67.10;29.63;;;4.80;99.90;;;;;;5076305;28;20450;-69
2021/11/12 10:05:12;;;;;;;88.07;30.27;;;4.90;99.90;;;;;;5074490;28;20445;-68
2021/11/12 10:07:39;;;;;;;44.87;26.93;;;5.00;99.90;;;;;;5074094;28;20831;-68
2021/11/12 10:10:09;;;;;;;106.77;31.03;;;5.10;99.90;;;;;;5074461;28;20504;-69
2021/11/12 10:12:39;;;;;;;88.70;30.50;;;5.20;99.90;;;;;;5074725;28;20498;-69
2021/11/12 10:15:12;;;;;;;44.23;28.87;;;5.20;99.90;;;;;;5081459;28;20438;-69
2021/11/12 10:17:41;;;;;;;70.47;30.13;;;5.20;99.90;;;;;;5074217;28;20827;-69
2021/11/12 10:20:09;;;;;;;65.07;30.10;;;5.10;99.90;;;;;;5074385;28;20467;-69
2021/11/12 10:22:38;;;;;;;40.90;29.63;;;5.10;99.90;;;;;;5080171;28;20478;-68
2021/11/12 10:25:08;;;;;;;193.50;37.13;;;5.10;99.90;;;;;;5093300;28;20450;-69
2021/11/12 10:27:36;;;;;;;164.70;34.83;;;5.00;99.90;;;;;;5087340;28;20980;-70
2021/11/12 10:30:11;;;;;;;157.80;36.60;;;5.00;99.90;;;;;;5078915;28;20450;-69
2021/11/12 10:32:38;;;;;;;61.10;34.43;;;4.80;99.90;;;;;;5078656;28;20481;-68
2021/11/12 10:35:09;;;;;;;59.27;34.53;;;4.80;99.90;;;;;;5088872;28;20453;-69
2021/11/12 10:37:38;;;;;;;78.40;33.23;;;4.90;99.90;;;;;;5086574;28;21069;-68
2021/11/12 10:40:08;;;;;;;68.93;36.50;;;5.00;99.90;;;;;;5084598;28;20454;-69
2021/11/12 10:42:38;;;;;;;88.03;35.83;;;4.90;99.90;;;;;;5080308;28;20478;-69
2021/11/12 10:45:07;;;;;;;72.57;38.30;;;4.90;99.90;;;;;;5079573;28;20450;-69
2021/11/12 10:47:36;;;;;;;109.20;38.83;;;4.80;99.90;;;;;;5079466;28;20446;-69
2021/11/12 10:50:07;;;;;;;137.07;37.77;;;4.60;99.90;;;;;;5079982;28;20450;-69
2021/11/12 10:52:35;;;;;;;108.63;38.37;;;4.70;99.90;;;;;;5078659;28;20485;-69
2021/11/12 10:55:05;;;;;;;81.00;32.90;;;4.70;99.90;;;;;;5078520;28;20549;-69
2021/11/12 10:57:34;;;;;;;67.40;36.90;;;4.80;99.90;;;;;;5079234;28;20772;-69
2021/11/12 11:00:09;;;;;;;77.73;33.60;;;4.90;99.90;;;;;;5078783;28;20446;-68
2021/11/12 11:02:40;;;;;;;84.63;34.93;;;4.90;99.90;;;;;;5077690;28;20470;-69
2021/11/12 11:05:11;;;;;;;85.60;37.27;;;4.90;99.90;;;;;;5077854;28;20469;-70
2021/11/12 11:07:38;;;;;;;113.40;36.60;;;5.00;99.90;;;;;;5077959;28;20465;-68
2021/11/12 11:10:07;;;;;;;155.00;33.47;;;4.90;99.90;;;;;;5077451;28;20459;-68
2021/11/12 11:12:40;;;;;;;158.50;37.07;;;4.80;99.90;;;;;;5077196;28;20477;-68
2021/11/12 11:15:22;;;;;;;117.83;36.60;;;4.70;99.90;;;;;;5078893;28;20431;-69
2021/11/12 11:17:51;;;;;;;64.47;34.23;;;4.70;99.90;;;;;;5077226;28;20463;-69
2021/11/12 11:20:21;;;;;;;96.07;34.80;;;4.70;99.90;;;;;;5086722;28;20455;-68
2021/11/12 11:22:53;;;;;;;61.23;35.40;;;4.80;99.90;;;;;;5080928;28;20486;-69
2021/11/12 11:25:21;;;;;;;90.57;38.37;;;4.80;99.90;;;;;;5096921;28;20446;-69
2021/11/12 11:27:48;;;;;;;46.87;33.87;;;4.90;99.90;;;;;;5078491;28;20447;-68
2021/11/12 11:30:15;;;;;;;63.97;36.97;;;5.00;99.90;;;;;;5077179;28;20546;-69
2021/11/12 11:32:44;;;;;;;156.13;35.73;;;5.00;99.90;;;;;;5076950;28;20447;-69
2021/11/12 11:35:11;;;;;;;215.33;40.50;;;5.00;99.90;;;;;;5076482;28;20824;-68
2021/11/12 11:37:40;;;;;;;288.13;38.70;;;5.00;99.90;;;;;;5075873;28;20503;-69
2021/11/12 11:40:08;;;;;;;68.47;36.60;;;5.00;99.90;;;;;;5077506;28;20983;-70
2021/11/12 11:42:36;;;;;;;96.53;35.70;;;5.10;99.90;;;;;;5076511;28;20984;-69
2021/11/12 11:45:04;;;;;;;132.47;38.40;;;5.10;99.90;;;;;;5076673;28;20458;-69
2021/11/12 11:47:32;;;;;;;78.83;34.57;;;5.20;99.90;;;;;;5083086;28;20434;-69
2021/11/12 11:50:00;;;;;;;62.73;35.57;;;5.20;99.90;;;;;;5089477;28;20451;-69
2021/11/12 11:52:29;;;;;;;67.83;34.20;;;5.30;99.90;;;;;;5080861;28;20479;-69
2021/11/12 11:54:58;;;;;;;106.10;34.10;;;5.30;99.90;;;;;;5077942;28;20447;-69
2021/11/12 11:57:27;;;;;;;100.83;33.47;;;5.40;99.90;;;;;;5076175;28;21028;-69
2021/11/12 12:00:17;;;;;;;55.87;32.47;;;5.40;99.90;;;;;;5075963;28;20475;-69
2021/11/12 12:02:44;;;;;;;125.73;34.77;;;5.60;99.90;;;;;;5077424;28;20462;-70
2021/11/12 12:05:11;;;;;;;49.10;33.10;;;5.60;99.90;;;;;;5075864;28;20891;-68
2021/11/12 12:07:43;;;;;;;58.30;36.20;;;5.70;99.90;;;;;;5075865;28;20446;-69
2021/11/12 12:10:24;;;;;;;51.87;33.50;;;5.80;99.90;;;;;;5076052;28;20532;-69
2021/11/12 12:13:05;;;;;;;50.57;35.70;;;5.70;99.90;;;;;;5075824;28;20446;-69
2021/11/12 12:15:45;;;;;;;50.63;33.67;;;5.80;99.90;;;;;;5075742;28;20431;-69
2021/11/12 12:18:24;;;;;;;60.10;35.93;;;5.90;99.90;;;;;;5075780;28;21004;-69
2021/11/12 12:21:22;;;;;;;48.57;33.70;;;6.10;99.90;;;;;;5075833;28;20540;-69
2021/11/12 12:32:37;;;;;;;43.67;33.60;;;6.20;99.90;;;;;;5075416;28;20568;-68
2021/11/12 12:35:22;;;;;;;52.63;34.93;;;6.30;99.90;;;;;;5075720;28;20532;-71
2021/11/12 13:20:39;;;;;;;102.17;42.23;;;5.70;99.90;;;;;;5085226;28;20485;-69
2021/11/12 13:23:26;;;;;;;82.37;41.10;;;5.70;99.90;;;;;;5077022;28;20438;-68
2021/11/12 13:25:54;;;;;;;66.33;43.57;;;5.50;99.90;;;;;;5074890;28;20796;-68
2021/11/12 13:28:24;;;;;;;64.07;43.47;;;5.60;99.90;;;;;;5074600;28;20443;-68
2021/11/12 13:30:54;;;;;;;82.03;43.60;;;5.70;99.90;;;;;;5074694;28;20494;-69
2021/11/12 13:33:34;;;;;;;69.50;44.67;;;5.60;99.90;;;;;;5075325;28;20464;-69
2021/11/12 13:36:06;;;;;;;84.20;45.30;;;5.60;99.90;;;;;;5075535;28;20816;-69
2021/11/12 13:38:36;;;;;;;69.17;43.90;;;5.50;99.90;;;;;;5080545;28;20466;-69
2021/11/12 13:41:07;;;;;;;70.40;44.27;;;5.50;99.90;;;;;;5075508;28;20505;-69
2021/11/12 13:43:35;;;;;;;93.83;45.20;;;5.40;99.90;;;;;;5073906;28;20918;-69
2021/11/12 13:46:02;;;;;;;65.03;44.13;;;5.40;99.90;;;;;;5075138;28;20542;-69
2021/11/12 13:48:42;;;;;;;78.97;43.30;;;5.50;99.90;;;;;;5074584;28;20454;-69
2021/11/12 13:51:09;;;;;;;84.10;44.07;;;5.50;99.90;;;;;;5076090;28;20470;-70
2021/11/12 13:53:36;;;;;;;82.60;45.57;;;5.50;99.90;;;;;;5093199;28;20451;-69
2021/11/12 13:56:07;;;;;;;95.27;44.40;;;5.40;99.90;;;;;;5094192;28;20454;-69
2021/11/12 13:58:33;;;;;;;84.67;48.83;;;5.40;99.90;;;;;;5097068;28;20443;-70
2021/11/12 14:01:00;;;;;;;70.70;44.47;;;5.40;99.90;;;;;;5099180;28;20474;-69
2021/11/12 14:03:36;;;;;;;74.93;45.23;;;5.30;99.90;;;;;;5088010;28;20464;-69
2021/11/12 14:06:09;;;;;;;71.63;45.20;;;5.20;99.90;;;;;;5078553;28;20446;-70
2021/11/12 14:08:38;;;;;;;83.50;47.53;;;5.30;99.90;;;;;;5078813;28;20484;-69
2021/11/12 14:11:17;;;;;;;64.77;42.60;;;5.30;99.90;;;;;;5079742;28;20493;-69
2021/11/12 14:13:45;;;;;;;66.60;42.30;;;5.40;99.90;;;;;;5077981;28;20439;-69
2021/11/12 14:16:15;;;;;;;75.80;37.80;;;5.40;99.90;;;;;;5078527;28;20454;-69
2021/11/12 14:21:48;;;;;;;93.30;40.67;;;5.10;99.90;;;;;;5089669;28;20469;-69
2021/11/12 14:24:29;;;;;;;74.07;43.50;;;5.00;99.90;;;;;;5099462;28;20481;-70
2021/11/12 14:27:02;;;;;;;77.07;41.67;;;4.90;99.90;;;;;;5078994;28;20445;-69
2021/11/12 14:29:55;;;;;;;67.70;41.17;;;4.80;99.90;;;;;;5080070;28;20873;-69
2021/11/12 14:32:46;;;;;;;66.13;38.73;;;4.60;99.90;;;;;;5077412;28;20473;-69
2021/11/12 14:35:26;;;;;;;76.70;44.10;;;4.70;99.90;;;;;;5078014;28;20435;-69
2021/11/12 14:38:05;;;;;;;91.40;40.50;;;4.70;99.90;;;;;;5076896;28;20470;-69
2021/11/12 14:41:10;;;;;;;63.30;40.13;;;4.80;99.90;;;;;;5077574;28;20470;-69
2021/11/12 14:43:47;;;;;;;83.20;41.80;;;4.70;99.90;;;;;;5077598;28;20648;-69
2021/11/12 14:46:19;;;;;;;72.00;45.07;;;4.70;99.90;;;;;;5077633;28;20439;-69
2021/11/12 14:48:57;;;;;;;73.50;43.63;;;4.70;99.90;;;;;;5077507;28;20941;-68
2021/11/12 14:51:37;;;;;;;88.47;41.53;;;4.70;99.90;;;;;;5078906;28;20566;-67
2021/11/12 14:54:08;;;;;;;83.90;42.97;;;4.60;99.90;;;;;;5077597;28;20534;-70
2021/11/12 14:56:35;;;;;;;60.03;37.90;;;4.60;99.90;;;;;;5078669;28;20460;-70
2021/11/12 14:59:04;;;;;;;98.20;44.50;;;4.60;99.90;;;;;;5078171;28;20485;-69
2021/11/12 15:01:35;;;;;;;72.40;45.47;;;4.60;99.90;;;;;;5077559;28;20566;-70
2021/11/12 15:04:02;;;;;;;78.40;45.17;;;4.70;99.90;;;;;;5077120;28;20439;-68
2021/11/12 15:06:29;;;;;;;109.93;41.93;;;4.70;99.90;;;;;;5080513;28;20450;-70
2021/11/12 15:09:03;;;;;;;83.27;42.37;;;4.60;99.90;;;;;;5079052;28;20443;-69
2021/11/12 15:11:31;;;;;;;80.70;43.60;;;4.60;99.90;;;;;;5077779;28;20569;-69
2021/11/12 15:14:04;;;;;;;135.77;42.90;;;4.70;99.90;;;;;;5077348;28;20507;-68
2021/11/12 15:16:32;;;;;;;153.57;43.33;;;4.60;99.90;;;;;;5077089;28;20526;-68
2021/11/12 15:19:00;;;;;;;101.73;38.43;;;4.60;99.90;;;;;;5076964;28;21009;-68
2021/11/12 15:21:29;;;;;;;144.70;40.40;;;4.60;99.90;;;;;;5076492;28;20474;-67
2021/11/12 15:24:03;;;;;;;111.23;37.87;;;4.60;99.90;;;;;;5076692;28;20482;-67
2021/11/12 15:26:43;;;;;;;138.00;37.90;;;4.60;99.90;;;;;;5077390;28;20438;-68
2021/11/12 15:29:14;;;;;;;62.10;33.00;;;4.60;99.90;;;;;;5085497;28;20431;-68
2021/11/12 15:31:48;;;;;;;58.10;33.90;;;4.70;99.90;;;;;;5090159;28;20520;-68
2021/11/12 15:34:15;;;;;;;93.90;34.23;;;4.70;99.90;;;;;;5077326;28;20438;-66
2021/11/12 15:36:47;;;;;;;122.90;34.07;;;4.70;99.90;;;;;;5078590;28;20459;-66
2021/11/12 15:39:17;;;;;;;86.97;31.80;;;4.70;99.90;;;;;;5076963;28;20470;-67
2021/11/12 15:44:30;;;;;;;63.47;30.60;;;4.70;99.90;;;;;;5077347;28;20492;-66
2021/11/12 15:47:05;;;;;;;63.80;30.10;;;4.70;99.90;;;;;;5077879;28;20450;-67
2021/11/12 15:49:33;;;;;;;89.43;33.77;;;4.70;99.90;;;;;;5077697;28;20434;-66
2021/11/12 15:52:02;;;;;;;60.27;32.00;;;4.70;99.90;;;;;;5083587;28;20995;-66
2021/11/12 15:54:44;;;;;;;84.47;33.60;;;4.70;99.90;;;;;;5080240;28;20449;-66
2021/11/12 16:00:15;;;;;;;205.10;36.93;;;4.70;99.90;;;;;;5022124;28;20472;-66
2021/11/12 16:03:02;;;;;;;70.07;29.37;;;4.70;99.90;;;;;;5078706;28;20439;-68
2021/11/12 16:08:41;;;;;;;157.93;34.70;;;4.50;99.90;;;;;;5085614;28;20434;-68
2021/11/12 16:14:00;;;;;;;154.23;33.20;;;4.40;99.90;;;;;;5077030;28;20434;-68
2021/11/12 16:19:13;;;;;;;118.27;34.40;;;4.40;99.90;;;;;;5076251;28;20465;-69
2021/11/12 16:24:56;;;;;;;71.27;31.20;;;4.50;99.90;;;;;;5076437;28;20520;-69
2021/11/12 16:27:25;;;;;;;87.83;35.00;;;4.50;99.90;;;;;;5076483;28;20465;-68
2021/11/12 16:29:53;;;;;;;85.70;31.83;;;4.50;99.90;;;;;;5076751;28;20442;-68
2021/11/12 16:32:25;;;;;;;93.13;29.23;;;4.50;99.90;;;;;;5082641;28;20485;-68
2021/11/12 16:34:56;;;;;;;298.67;40.80;;;4.50;99.90;;;;;;5096711;28;20423;-69
2021/11/12 16:37:25;;;;;;;90.73;31.20;;;4.50;99.90;;;;;;5076736;28;20481;-69
2021/11/12 16:39:55;;;;;;;117.40;29.83;;;4.50;99.90;;;;;;5079928;28;20485;-69
2021/11/12 16:42:39;;;;;;;82.67;29.30;;;4.50;99.90;;;;;;5075708;28;20473;-68
2021/11/12 16:45:12;;;;;;;60.13;27.37;;;4.50;99.90;;;;;;5075546;28;20439;-68
2021/11/12 16:47:49;;;;;;;198.33;35.03;;;4.50;99.90;;;;;;5076618;28;20438;-68
2021/11/12 16:53:13;;;;;;;123.33;30.83;;;4.50;99.90;;;;;;5075176;28;20491;-70
2021/11/12 16:56:00;;;;;;;57.80;31.67;;;4.40;99.90;;;;;;5075834;28;20430;-69
2021/11/12 16:58:33;;;;;;;132.93;32.37;;;4.40;99.90;;;;;;5087644;28;20431;-68
2021/11/12 17:06:36;;;;;;;285.87;37.60;;;4.40;99.90;;;;;;5076311;28;20447;-70
2021/11/12 17:09:30;;;;;;;159.60;33.93;;;4.30;99.90;;;;;;5079726;28;20557;-70
2021/11/12 17:12:05;;;;;;;133.40;32.40;;;4.30;99.90;;;;;;5075343;28;20478;-69
2021/11/12 17:14:48;;;;;;;300.03;36.23;;;4.20;99.90;;;;;;5075413;28;20434;-69
2021/11/12 17:17:48;;;;;;;358.80;41.00;;;4.20;99.90;;;;;;5075882;28;20521;-68
2021/11/12 17:20:29;;;;;;;191.50;35.97;;;4.10;99.90;;;;;;5077893;28;20558;-68
2021/11/12 17:45:15;;;;;;;310.37;42.30;;;3.80;99.90;;;;;;5075739;28;20478;-70
2021/11/12 17:47:45;;;;;;;317.67;42.50;;;3.70;99.90;;;;;;5075916;28;20435;-70
2021/11/12 17:50:17;;;;;;;141.90;38.70;;;3.80;99.90;;;;;;5074838;28;20920;-70
2021/11/12 18:03:50;;;;;;;298.63;42.33;;;3.80;99.90;;;;;;5039941;28;20529;-71
2021/11/12 18:06:20;;;;;;;210.13;39.20;;;3.80;99.90;;;;;;5076157;28;20430;-70
2021/11/12 18:09:21;;;;;;;197.97;38.20;;;3.90;99.90;;;;;;5085961;28;20431;-71
2021/11/12 18:15:10;;;;;;;218.80;37.03;;;4.00;99.90;;;;;;5048119;28;20464;-70
2021/11/12 18:17:58;;;;;;;80.47;36.20;;;3.90;99.90;;;;;;5083731;28;20482;-71
2021/11/12 21:44:24;;;;;;;740.70;73.37;;;2.80;99.90;;;;;;5075129;28;20426;-72
2021/11/12 21:46:50;;;;;;;721.97;68.17;;;2.90;99.90;;;;;;5074893;28;20805;-71
2021/11/12 21:49:17;;;;;;;433.80;63.33;;;2.90;99.90;;;;;;5074900;28;20457;-71
2021/11/12 21:51:46;;;;;;;871.10;79.83;;;2.90;99.90;;;;;;5075103;28;20471;-71
2021/11/12 21:54:13;;;;;;;787.07;78.77;;;3.00;99.90;;;;;;5074972;28;20450;-72
2021/11/12 21:56:40;;;;;;;688.20;77.17;;;3.00;99.90;;;;;;5074691;28;20466;-72
2021/11/12 21:59:07;;;;;;;939.50;86.87;;;3.10;99.90;;;;;;5074923;28;20475;-70
2021/11/12 22:01:36;;;;;;;483.33;71.77;;;3.10;99.90;;;;;;5074889;28;20486;-71
2021/11/12 22:04:04;;;;;;;894.60;91.80;;;3.00;99.90;;;;;;5074795;28;20455;-71
2021/11/12 22:06:31;;;;;;;1195.20;96.27;;;3.10;99.90;;;;;;5074540;28;20457;-72
2021/11/12 22:08:59;;;;;;;659.30;80.57;;;3.10;99.90;;;;;;5080011;28;20455;-72
2021/11/12 22:11:26;;;;;;;966.63;87.37;;;3.10;99.90;;;;;;5087470;28;20463;-72
2021/11/12 22:13:53;;;;;;;765.77;81.40;;;3.10;99.90;;;;;;5084965;28;20450;-71
2021/11/12 22:16:21;;;;;;;655.50;75.40;;;3.10;99.90;;;;;;5075535;28;20829;-72
2021/11/12 22:18:49;;;;;;;902.83;86.77;;;3.10;99.90;;;;;;5075495;28;20551;-72
2021/11/12 22:21:16;;;;;;;435.43;67.00;;;3.10;99.90;;;;;;5078113;28;20486;-72
2021/11/12 22:23:44;;;;;;;551.67;67.90;;;3.10;99.90;;;;;;5077997;28;20439;-72
2021/11/12 22:26:13;;;;;;;606.27;68.90;;;3.10;99.90;;;;;;5089932;28;20443;-72
2021/11/12 22:28:39;;;;;;;684.37;76.00;;;3.20;99.90;;;;;;5092587;28;20447;-71
2021/11/12 22:31:06;;;;;;;510.97;63.97;;;3.20;99.90;;;;;;5079123;28;20473;-71
2021/11/12 22:33:33;;;;;;;458.47;106.63;;;3.10;99.90;;;;;;5078381;28;20458;-72
2021/11/12 22:36:00;;;;;;;346.13;60.27;;;3.20;99.90;;;;;;5078093;28;20458;-72
2021/11/12 22:38:27;;;;;;;304.33;60.77;;;3.20;99.90;;;;;;5078424;28;20435;-71
2021/11/12 22:40:55;;;;;;;282.83;59.70;;;3.20;99.90;;;;;;5078693;28;20490;-71
2021/11/12 22:43:25;;;;;;;578.97;68.60;;;3.30;99.90;;;;;;5078192;28;20458;-71
2021/11/12 22:45:52;;;;;;;607.97;72.57;;;3.30;99.90;;;;;;5078773;28;20450;-71
2021/11/12 22:48:19;;;;;;;561.13;68.43;;;3.30;99.90;;;;;;5078583;28;20456;-72
2021/11/12 22:50:46;;;;;;;320.30;62.07;;;3.20;99.90;;;;;;5077771;28;20467;-72
2021/11/12 22:53:13;;;;;;;482.80;68.73;;;3.20;99.90;;;;;;5078542;28;20454;-72
2021/11/12 22:55:40;;;;;;;519.87;70.30;;;3.20;99.90;;;;;;5077671;28;20451;-71
2021/11/12 22:58:07;;;;;;;606.50;71.80;;;3.30;99.90;;;;;;5077873;28;20466;-72
